Time;durP1;ratioP1;P1;durP2;ratioP2;P2;SDS_P1;SDS_P2;PMS_P1;PMS_P2;Temp;Humidity;BMP_temperature;BMP_pressure;BME280_temperature;BME280_humidity;BME280_pressure;Samples;Min_cycle;Max_cycle;Signal;HPM_P1;HPM_P2
2022/06/08 00:02:17;;;;;;;14.52;4.25;;;14.70;99.90;;;;;;5081521;28;20066;-79
2022/06/08 00:04:45;;;;;;;8.13;4.15;;;14.70;99.90;;;;;;5071451;28;20101;-79
2022/06/08 00:07:12;;;;;;;7.68;4.30;;;14.70;99.90;;;;;;5084495;28;20139;-79
2022/06/08 00:09:40;;;;;;;14.20;3.67;;;14.60;99.90;;;;;;5089964;28;20079;-79
2022/06/08 00:12:09;;;;;;;5.85;3.70;;;14.70;99.90;;;;;;5090765;28;20048;-79
2022/06/08 00:14:36;;;;;;;8.98;4.20;;;14.60;99.90;;;;;;5084188;28;20101;-79
2022/06/08 00:17:05;;;;;;;8.48;3.90;;;14.60;99.90;;;;;;5078226;28;20142;-79
2022/06/08 00:19:32;;;;;;;7.07;3.78;;;14.60;99.90;;;;;;5083392;28;20052;-78
2022/06/08 00:22:00;;;;;;;8.27;3.53;;;14.60;99.90;;;;;;5071962;28;20059;-79
2022/06/08 00:24:28;;;;;;;12.30;4.00;;;14.60;99.90;;;;;;5070582;28;20040;-79
2022/06/08 00:26:55;;;;;;;10.65;4.25;;;14.70;99.90;;;;;;5076123;28;20548;-78
2022/06/08 00:29:23;;;;;;;9.05;3.78;;;14.60;99.90;;;;;;5070564;28;20113;-79
2022/06/08 00:31:53;;;;;;;14.30;4.88;;;14.60;99.90;;;;;;5081243;28;20588;-78
2022/06/08 00:34:21;;;;;;;10.27;5.53;;;14.60;99.90;;;;;;5055931;28;20068;-79
2022/06/08 00:36:49;;;;;;;13.95;5.20;;;14.50;99.90;;;;;;5081730;28;20105;-78
2022/06/08 00:39:18;;;;;;;15.68;6.53;;;14.50;99.90;;;;;;5068012;28;20049;-79
2022/06/08 00:41:49;;;;;;;10.73;6.10;;;14.40;99.90;;;;;;5052403;28;20534;-78
2022/06/08 00:44:21;;;;;;;13.52;5.97;;;14.40;99.90;;;;;;5076685;28;20040;-78
2022/06/08 00:46:49;;;;;;;12.27;5.97;;;14.30;99.90;;;;;;5081214;28;20486;-78
2022/06/08 00:49:24;;;;;;;14.93;5.80;;;14.30;99.90;;;;;;5060245;28;20049;-78
2022/06/08 00:51:51;;;;;;;12.07;6.32;;;14.30;99.90;;;;;;5079690;28;20358;-78
2022/06/08 00:54:23;;;;;;;15.38;6.15;;;14.30;99.90;;;;;;5082523;28;20071;-78
2022/06/08 00:56:54;;;;;;;13.93;5.70;;;14.30;99.90;;;;;;5078624;28;20143;-75
2022/06/08 00:59:22;;;;;;;9.23;4.88;;;14.30;99.90;;;;;;5078071;28;20048;-76
2022/06/08 01:01:50;;;;;;;11.70;4.75;;;14.30;99.90;;;;;;5061641;28;20489;-75
2022/06/08 01:04:20;;;;;;;11.40;4.80;;;14.30;99.90;;;;;;5058192;28;20055;-75
2022/06/08 01:06:57;;;;;;;6.55;4.40;;;14.30;99.90;;;;;;5069692;28;20043;-76
2022/06/08 01:09:31;;;;;;;10.95;4.63;;;14.30;99.90;;;;;;5075912;28;20044;-76
2022/06/08 01:12:01;;;;;;;10.75;4.88;;;14.30;99.90;;;;;;5081738;28;20052;-76
2022/06/08 01:14:31;;;;;;;5.47;4.10;;;14.40;99.90;;;;;;5063959;28;20139;-76
2022/06/08 01:17:04;;;;;;;10.88;3.72;;;14.40;99.90;;;;;;5080272;28;20044;-76
2022/06/08 01:19:35;;;;;;;10.63;4.10;;;14.30;99.90;;;;;;5071399;28;20056;-75
2022/06/08 01:22:07;;;;;;;8.00;4.15;;;14.30;99.90;;;;;;5084306;28;20063;-76
2022/06/08 01:24:55;;;;;;;9.75;4.53;;;14.30;99.90;;;;;;5069482;28;20048;-76
2022/06/08 01:27:45;;;;;;;10.27;5.32;;;14.20;99.90;;;;;;5087134;28;20135;-76
2022/06/08 01:30:22;;;;;;;13.48;5.70;;;14.20;99.90;;;;;;5052998;28;20050;-76
2022/06/08 01:33:34;;;;;;;15.25;5.82;;;14.20;99.90;;;;;;5068191;28;20060;-76
2022/06/08 01:36:19;;;;;;;11.38;5.25;;;14.20;99.90;;;;;;5078253;28;20040;-77
2022/06/08 01:38:57;;;;;;;12.45;5.15;;;14.10;99.90;;;;;;5069026;28;20488;-76
2022/06/08 01:41:38;;;;;;;11.35;5.70;;;14.10;99.90;;;;;;5077768;28;20048;-76
2022/06/08 01:44:21;;;;;;;18.33;5.65;;;14.10;99.90;;;;;;5086586;28;20053;-76
2022/06/08 01:47:00;;;;;;;10.70;5.88;;;14.10;99.90;;;;;;5069102;28;20144;-76
2022/06/08 01:49:34;;;;;;;15.15;6.43;;;14.20;99.90;;;;;;5073731;28;20048;-77
2022/06/08 01:52:17;;;;;;;14.85;5.20;;;14.20;99.90;;;;;;5085442;28;20054;-76
2022/06/08 01:55:01;;;;;;;15.70;8.23;;;14.20;99.90;;;;;;5078943;28;20044;-79
2022/06/08 01:57:57;;;;;;;20.52;8.48;;;14.10;99.90;;;;;;5085155;28;20523;-79
2022/06/08 02:00:30;;;;;;;17.25;8.90;;;14.10;99.90;;;;;;5081687;28;20053;-78
2022/06/08 02:03:09;;;;;;;16.33;6.60;;;14.10;99.90;;;;;;5092699;28;20123;-78
2022/06/08 02:05:46;;;;;;;8.85;5.15;;;14.10;99.90;;;;;;5092743;28;20052;-78
2022/06/08 02:08:22;;;;;;;14.65;5.05;;;14.10;99.90;;;;;;5063187;28;20101;-78
2022/06/08 02:10:56;;;;;;;9.18;4.32;;;14.00;99.90;;;;;;5058733;28;20048;-78
2022/06/08 02:13:33;;;;;;;9.15;4.43;;;13.90;99.90;;;;;;5090082;28;20039;-79
2022/06/08 02:16:07;;;;;;;8.40;4.47;;;13.90;99.90;;;;;;5074663;28;20055;-79
2022/06/08 02:18:38;;;;;;;9.65;4.18;;;13.80;99.90;;;;;;5084623;28;20127;-79
2022/06/08 02:21:10;;;;;;;9.40;4.20;;;13.80;99.90;;;;;;5072857;28;20136;-78
2022/06/08 02:23:47;;;;;;;7.28;3.78;;;13.80;99.90;;;;;;5071076;28;20056;-77
2022/06/08 02:26:19;;;;;;;10.35;4.22;;;13.80;99.90;;;;;;5081295;28;20044;-78
2022/06/08 02:28:48;;;;;;;;;;;13.70;99.90;;;;;;5108770;28;20048;-78
2022/06/08 02:31:19;;;;;;;9.88;4.32;;;13.70;99.90;;;;;;5078553;28;19931;-77
2022/06/08 02:36:49;;;;;;;7.95;4.28;;;13.70;99.90;;;;;;5059179;28;20533;-78
2022/06/08 02:39:21;;;;;;;10.20;5.35;;;13.70;99.90;;;;;;5067905;28;20045;-77
2022/06/08 02:41:54;;;;;;;9.40;4.60;;;13.70;99.90;;;;;;5074782;28;20049;-77
2022/06/08 02:44:26;;;;;;;11.30;4.50;;;13.70;99.90;;;;;;5058103;28;20045;-78
2022/06/08 02:47:02;;;;;;;9.60;4.20;;;13.70;99.90;;;;;;5089460;28;20055;-77
2022/06/08 02:49:34;;;;;;;10.93;4.70;;;13.70;99.90;;;;;;5072419;28;20127;-76
2022/06/08 02:52:08;;;;;;;10.32;4.57;;;13.70;99.90;;;;;;5072308;28;20075;-79
2022/06/08 02:54:35;;;;;;;7.65;4.28;;;13.70;99.90;;;;;;5074571;28;20762;-78
2022/06/08 02:57:15;;;;;;;6.65;4.22;;;13.80;99.90;;;;;;5080219;28;20437;-78
2022/06/08 02:59:51;;;;;;;7.95;3.83;;;13.80;99.90;;;;;;5070451;28;20140;-77
2022/06/08 03:02:28;;;;;;;8.70;3.83;;;13.80;99.90;;;;;;5056020;28;20045;-78
2022/06/08 03:05:02;;;;;;;5.32;3.88;;;13.90;99.90;;;;;;5089572;28;20054;-78
2022/06/08 03:07:35;;;;;;;6.47;3.08;;;13.90;99.90;;;;;;5090891;28;20052;-77
2022/06/08 03:10:07;;;;;;;6.90;3.47;;;14.00;99.90;;;;;;5078980;28;20047;-78
2022/06/08 03:12:38;;;;;;;4.65;3.33;;;14.00;99.90;;;;;;5083817;28;20075;-78
2022/06/08 03:15:07;;;;;;;6.20;2.80;;;14.10;99.90;;;;;;5104443;28;20041;-77
2022/06/08 03:17:36;;;;;;;4.75;2.35;;;14.10;99.90;;;;;;5086184;28;20059;-78
2022/06/08 03:20:08;;;;;;;5.93;2.75;;;14.10;99.90;;;;;;5074423;28;20055;-78
2022/06/08 03:22:38;;;;;;;2.90;2.25;;;14.20;99.90;;;;;;5079864;28;20055;-78
2022/06/08 03:25:07;;;;;;;3.78;2.53;;;14.30;99.90;;;;;;5082637;28;20056;-78
2022/06/08 03:27:38;;;;;;;2.63;2.20;;;14.30;99.90;;;;;;5058243;28;20036;-78
2022/06/08 03:30:07;;;;;;;5.18;2.47;;;14.40;99.90;;;;;;5083764;28;20052;-78
2022/06/08 03:32:39;;;;;;;4.93;1.98;;;14.50;99.90;;;;;;5064960;28;20146;-78
2022/06/08 03:35:10;;;;;;;4.60;2.10;;;14.50;99.90;;;;;;5089315;28;20059;-78
2022/06/08 03:37:38;;;;;;;5.45;2.75;;;14.60;99.90;;;;;;5073902;28;20062;-79
2022/06/08 03:40:09;;;;;;;9.70;2.40;;;14.60;99.90;;;;;;5088819;28;20067;-79
2022/06/08 03:42:38;;;;;;;6.47;2.00;;;14.70;99.90;;;;;;5063081;28;20044;-79
2022/06/08 03:45:07;;;;;;;4.53;2.45;;;14.80;99.90;;;;;;5063182;28;20087;-78
2022/06/08 03:47:40;;;;;;;1.75;1.52;;;14.90;99.90;;;;;;5075903;28;20067;-79
2022/06/08 03:50:11;;;;;;;5.07;1.80;;;15.00;99.50;;;;;;5089413;28;20082;-78
2022/06/08 03:52:44;;;;;;;4.38;2.08;;;15.10;97.80;;;;;;5082296;28;20044;-78
2022/06/08 03:55:13;;;;;;;4.40;2.03;;;15.20;97.30;;;;;;5081266;28;20081;-79
2022/06/08 03:57:45;;;;;;;4.95;1.92;;;15.30;96.20;;;;;;5070839;28;20100;-79
2022/06/08 04:00:16;;;;;;;7.25;1.75;;;15.40;96.10;;;;;;5062898;28;20051;-78
2022/06/08 04:02:53;;;;;;;5.80;1.85;;;15.50;95.40;;;;;;5073348;28;20048;-80
2022/06/08 04:05:26;;;;;;;3.33;1.75;;;15.60;94.90;;;;;;5086032;28;20389;-79
2022/06/08 04:07:55;;;;;;;3.30;1.60;;;15.70;94.50;;;;;;5080097;28;20059;-79
2022/06/08 04:10:23;;;;;;;7.40;2.05;;;15.80;94.10;;;;;;5078159;28;20493;-79
2022/06/08 04:12:56;;;;;;;5.35;1.90;;;16.00;93.50;;;;;;5084739;28;20051;-79
2022/06/08 04:15:43;;;;;;;3.20;1.52;;;16.10;92.80;;;;;;5081853;28;20052;-80
2022/06/08 04:18:20;;;;;;;5.85;1.95;;;16.20;92.50;;;;;;5068864;28;20097;-79
2022/06/08 04:20:51;;;;;;;2.80;1.50;;;16.30;91.00;;;;;;5070947;28;20059;-79
2022/06/08 04:23:20;;;;;;;7.38;1.80;;;16.40;91.50;;;;;;5053389;28;20110;-80
2022/06/08 04:25:49;;;;;;;2.92;1.48;;;16.50;90.50;;;;;;5074528;28;20048;-80
2022/06/08 04:28:18;;;;;;;7.32;1.58;;;16.50;88.10;;;;;;5066292;28;20412;-81
2022/06/08 04:30:49;;;;;;;2.75;1.80;;;16.50;87.50;;;;;;5077641;28;20428;-80
2022/06/08 04:33:17;;;;;;;1.42;1.33;;;16.60;87.10;;;;;;5091565;28;20616;-79
2022/06/08 04:35:45;;;;;;;4.45;1.98;;;16.60;87.00;;;;;;5086159;28;20047;-79
2022/06/08 04:38:13;;;;;;;4.90;1.73;;;16.70;88.10;;;;;;5060881;28;20040;-79
2022/06/08 04:40:42;;;;;;;5.15;1.45;;;16.80;85.70;;;;;;5086050;28;20047;-79
2022/06/08 04:43:10;;;;;;;2.65;1.52;;;16.90;85.00;;;;;;5072248;28;20066;-79
2022/06/08 04:45:39;;;;;;;3.20;1.40;;;17.00;83.00;;;;;;5056769;28;20044;-78
2022/06/08 04:48:09;;;;;;;3.05;1.30;;;17.00;82.60;;;;;;5081034;28;20497;-78
2022/06/08 04:50:38;;;;;;;3.38;1.90;;;17.10;81.70;;;;;;5089362;28;20040;-78
2022/06/08 04:53:05;;;;;;;2.85;1.50;;;17.20;81.00;;;;;;5090329;28;20044;-78
2022/06/08 04:55:36;;;;;;;4.38;1.88;;;17.30;80.90;;;;;;5076400;28;20072;-79
2022/06/08 04:58:04;;;;;;;5.32;1.25;;;17.50;80.90;;;;;;5090159;28;20040;-77
2022/06/08 05:00:35;;;;;;;1.90;1.02;;;17.60;79.00;;;;;;5086288;28;20055;-77
2022/06/08 05:03:06;;;;;;;2.80;1.20;;;17.70;77.00;;;;;;5063445;28;20044;-77
2022/06/08 05:05:40;;;;;;;4.28;1.67;;;17.80;75.00;;;;;;5078466;28;20052;-77
2022/06/08 05:08:16;;;;;;;3.78;1.30;;;17.80;75.00;;;;;;5083046;28;20087;-78
2022/06/08 05:10:46;;;;;;;3.10;1.13;;;17.90;74.00;;;;;;5081489;28;20109;-77
2022/06/08 05:13:19;;;;;;;3.13;1.35;;;17.90;74.10;;;;;;5074592;28;20052;-77
2022/06/08 05:15:52;;;;;;;3.67;1.25;;;18.00;72.50;;;;;;5079900;28;20044;-73
2022/06/08 05:18:22;;;;;;;3.00;1.13;;;18.10;73.00;;;;;;5072622;28;20057;-74
2022/06/08 05:20:53;;;;;;;9.75;1.73;;;18.30;73.10;;;;;;5063954;28;20045;-76
2022/06/08 05:23:27;;;;;;;5.57;1.50;;;18.50;71.90;;;;;;5068257;28;20094;-75
2022/06/08 05:25:56;;;;;;;5.18;1.20;;;18.60;71.00;;;;;;5064813;28;20063;-75
2022/06/08 05:28:24;;;;;;;5.32;1.35;;;18.80;69.00;;;;;;5062475;28;20040;-76
2022/06/08 05:30:56;;;;;;;1.70;1.00;;;18.90;68.70;;;;;;5062366;28;20048;-77
2022/06/08 05:33:27;;;;;;;2.53;1.40;;;19.00;67.90;;;;;;5084045;28;20086;-77
2022/06/08 05:35:59;;;;;;;7.65;1.35;;;19.10;67.80;;;;;;5083442;28;20055;-76
2022/06/08 05:38:27;;;;;;;6.10;1.45;;;19.20;67.30;;;;;;5080008;28;20083;-76
2022/06/08 05:40:56;;;;;;;1.23;1.13;;;19.50;66.40;;;;;;5064016;28;20610;-76
2022/06/08 05:43:24;;;;;;;6.32;1.80;;;19.90;64.70;;;;;;5075765;28;20127;-74
2022/06/08 05:45:54;;;;;;;8.77;1.80;;;20.40;64.10;;;;;;5081477;28;20060;-80
2022/06/08 05:48:27;;;;;;;4.57;1.13;;;20.80;63.00;;;;;;5075985;28;20044;-79
2022/06/08 05:50:55;;;;;;;6.05;1.45;;;21.20;61.70;;;;;;5065549;28;20098;-81
2022/06/08 05:53:25;;;;;;;15.25;1.40;;;21.70;59.40;;;;;;5084354;28;20036;-80
2022/06/08 05:55:55;;;;;;;5.45;1.30;;;22.20;58.90;;;;;;5078390;28;20515;-79
2022/06/08 05:58:28;;;;;;;3.20;1.25;;;22.60;57.40;;;;;;5078358;28;20079;-80
2022/06/08 06:00:58;;;;;;;5.78;1.70;;;22.90;56.30;;;;;;5089746;28;20420;-81
2022/06/08 06:03:27;;;;;;;6.22;1.15;;;23.30;56.00;;;;;;5081747;28;20044;-82
2022/06/08 06:05:54;;;;;;;3.08;1.95;;;23.80;54.30;;;;;;5068783;28;20167;-82
2022/06/08 06:08:22;;;;;;;10.10;1.30;;;24.00;53.80;;;;;;5075359;28;20048;-88
2022/06/08 06:10:53;;;;;;;6.60;1.50;;;24.30;53.50;;;;;;5078772;28;20040;-83
2022/06/08 06:13:32;;;;;;;4.68;1.30;;;24.90;52.20;;;;;;5063071;28;20201;-85
2022/06/08 06:16:01;;;;;;;12.73;2.15;;;25.40;51.00;;;;;;5075938;28;20466;-84
2022/06/08 06:18:31;;;;;;;5.72;1.70;;;25.60;50.60;;;;;;5078072;28;20048;-86
2022/06/08 06:21:19;;;;;;;1.67;1.38;;;25.70;50.10;;;;;;5060098;28;20079;-84
2022/06/08 06:24:20;;;;;;;1.98;1.23;;;25.60;49.30;;;;;;5060516;28;20081;-85
2022/06/08 06:26:59;;;;;;;6.20;1.50;;;25.40;48.60;;;;;;5078987;28;20505;-84
2022/06/08 06:29:46;;;;;;;2.97;1.50;;;25.30;49.40;;;;;;5071429;28;20044;-83
2022/06/08 06:32:37;;;;;;;4.38;1.23;;;25.50;49.00;;;;;;5077005;28;20051;-85
2022/06/08 06:35:10;;;;;;;3.05;1.40;;;25.50;48.60;;;;;;5060391;28;20049;-86
2022/06/08 06:37:38;;;;;;;6.95;1.80;;;25.50;48.60;;;;;;5060698;28;20045;-82
2022/06/08 06:40:11;;;;;;;7.32;1.30;;;25.40;48.60;;;;;;5059350;28;20053;-82
2022/06/08 06:42:41;;;;;;;7.38;1.55;;;25.40;48.60;;;;;;5073154;28;20051;-79
2022/06/08 06:45:28;;;;;;;6.53;1.55;;;25.70;48.60;;;;;;5088861;28;20047;-79
2022/06/08 06:48:03;;;;;;;3.75;1.20;;;26.00;47.70;;;;;;5061080;28;20049;-77
2022/06/08 06:50:34;;;;;;;6.78;1.80;;;26.10;47.70;;;;;;5072533;28;20528;-80
2022/06/08 06:53:02;;;;;;;2.03;1.08;;;26.10;48.20;;;;;;5074345;28;20056;-79
2022/06/08 06:55:33;;;;;;;2.63;1.48;;;26.10;47.20;;;;;;5073764;28;20159;-80
2022/06/08 06:58:23;;;;;;;18.90;1.50;;;26.10;46.70;;;;;;5079079;28;20127;-80
2022/06/08 07:00:53;;;;;;;5.13;1.25;;;26.20;46.70;;;;;;5071097;28;20803;-78
2022/06/08 07:03:21;;;;;;;10.32;2.28;;;26.40;46.30;;;;;;5062711;28;20040;-78
2022/06/08 07:05:56;;;;;;;4.78;1.38;;;26.90;46.50;;;;;;5083991;28;20147;-77
2022/06/08 07:08:24;;;;;;;2.60;1.20;;;27.50;45.50;;;;;;5075725;28;20046;-78
2022/06/08 07:13:41;;;;;;;5.03;1.50;;;28.30;45.50;;;;;;5075493;28;20097;-78
2022/06/08 07:16:10;;;;;;;8.70;2.50;;;28.80;44.20;;;;;;5076647;28;20052;-78
2022/06/08 07:18:38;;;;;;;6.20;2.30;;;28.70;44.10;;;;;;5062647;28;20205;-83
2022/06/08 07:21:07;;;;;;;6.72;1.58;;;29.00;43.50;;;;;;5060161;28;20116;-81
2022/06/08 07:23:34;;;;;;;4.57;1.40;;;29.30;43.20;;;;;;5077560;28;20044;-79
2022/06/08 07:26:04;;;;;;;10.63;1.40;;;29.40;42.80;;;;;;5070288;28;20075;-77
2022/06/08 07:28:31;;;;;;;7.07;1.30;;;29.70;42.30;;;;;;5072740;28;20059;-75
2022/06/08 07:31:00;;;;;;;5.88;1.30;;;29.90;41.70;;;;;;5072199;28;20040;-77
2022/06/08 07:33:27;;;;;;;4.75;1.73;;;30.10;41.30;;;;;;5075246;28;20470;-76
2022/06/08 07:35:55;;;;;;;4.95;1.70;;;30.00;40.70;;;;;;5075799;28;20097;-76
2022/06/08 07:38:23;;;;;;;7.70;1.30;;;29.70;41.30;;;;;;5081385;28;20457;-76
2022/06/08 07:40:51;;;;;;;11.25;1.58;;;29.90;41.20;;;;;;5073795;28;20045;-80
2022/06/08 07:43:18;;;;;;;7.45;1.30;;;30.00;40.50;;;;;;5087347;28;20097;-76
2022/06/08 07:45:45;;;;;;;4.45;1.92;;;29.90;40.00;;;;;;5078737;28;20062;-75
2022/06/08 07:50:58;;;;;;;13.77;1.52;;;29.80;41.20;;;;;;5067355;28;20483;-75
2022/06/08 07:53:27;;;;;;;6.20;1.55;;;30.30;40.80;;;;;;5056625;28;20047;-79
2022/06/08 07:55:56;;;;;;;9.35;1.65;;;30.80;39.60;;;;;;5069668;28;20110;-76
2022/06/08 07:58:24;;;;;;;4.38;1.30;;;30.70;39.60;;;;;;5074918;28;20517;-77
2022/06/08 08:00:53;;;;;;;11.48;1.42;;;30.90;39.50;;;;;;5081997;28;20040;-79
2022/06/08 08:03:21;;;;;;;10.88;1.33;;;31.10;39.60;;;;;;5083044;28;20058;-79
2022/06/08 08:05:48;;;;;;;5.40;1.42;;;31.50;38.70;;;;;;5081236;28;20048;-78
2022/06/08 08:08:17;;;;;;;5.45;1.20;;;31.30;39.40;;;;;;5078139;28;20082;-79
2022/06/08 08:10:47;;;;;;;8.00;2.67;;;31.40;39.40;;;;;;5080936;28;20102;-77
2022/06/08 08:13:15;;;;;;;8.40;1.60;;;31.50;39.30;;;;;;5082274;28;20118;-78
2022/06/08 08:15:44;;;;;;;4.10;1.10;;;32.00;38.90;;;;;;5083122;28;20508;-78
2022/06/08 08:18:12;;;;;;;7.53;1.13;;;32.50;37.70;;;;;;5076668;28;20050;-77
2022/06/08 08:20:39;;;;;;;3.05;0.98;;;32.40;37.70;;;;;;5073314;28;20170;-78
2022/06/08 08:23:07;;;;;;;8.27;1.40;;;32.30;37.60;;;;;;5069886;28;20448;-78
2022/06/08 08:25:36;;;;;;;13.75;1.50;;;32.20;38.00;;;;;;5078632;28;20055;-78
2022/06/08 08:28:08;;;;;;;11.32;1.58;;;32.00;38.20;;;;;;5055369;28;20039;-79
2022/06/08 08:30:38;;;;;;;5.35;1.00;;;31.70;38.60;;;;;;5069966;28;20514;-83
2022/06/08 08:33:09;;;;;;;3.85;1.50;;;31.20;38.90;;;;;;5072131;28;20412;-84
2022/06/08 08:35:37;;;;;;;6.13;1.23;;;31.10;39.80;;;;;;5075818;28;20074;-83
2022/06/08 08:38:04;;;;;;;9.48;1.50;;;31.50;39.10;;;;;;5079466;28;20121;-78
2022/06/08 08:40:45;;;;;;;5.93;1.90;;;31.50;39.10;;;;;;5075470;28;20131;-77
2022/06/08 08:43:17;;;;;;;4.25;1.05;;;30.90;39.30;;;;;;5075418;28;20040;-78
2022/06/08 08:45:58;;;;;;;1.65;1.40;;;29.70;40.00;;;;;;5072608;28;20516;-77
2022/06/08 08:48:28;;;;;;;2.28;1.27;;;28.80;41.10;;;;;;5084191;28;20043;-77
2022/06/08 08:51:06;;;;;;;5.10;1.33;;;28.00;42.20;;;;;;5078520;28;20052;-77
2022/06/08 08:53:48;;;;;;;4.25;1.27;;;27.30;42.80;;;;;;5065661;28;20080;-76
2022/06/08 08:56:22;;;;;;;8.52;1.95;;;26.80;43.60;;;;;;5075127;28;20530;-76
2022/06/08 08:58:51;;;;;;;9.88;1.58;;;26.30;44.40;;;;;;5077277;28;20364;-77
2022/06/08 09:01:21;;;;;;;8.98;1.55;;;25.80;45.30;;;;;;5065336;28;20048;-77
2022/06/08 09:03:55;;;;;;;9.52;2.00;;;25.40;46.30;;;;;;5067435;28;20053;-78
2022/06/08 09:06:25;;;;;;;6.78;1.42;;;25.20;46.80;;;;;;5046897;28;20088;-77
2022/06/08 09:09:00;;;;;;;3.78;1.10;;;25.10;47.60;;;;;;5071275;28;20048;-77
2022/06/08 09:11:32;;;;;;;6.78;1.17;;;24.80;47.80;;;;;;5064774;28;20445;-76
2022/06/08 09:14:07;;;;;;;5.63;2.47;;;24.60;47.60;;;;;;5067668;28;20060;-78
2022/06/08 09:16:39;;;;;;;4.55;2.08;;;24.40;48.30;;;;;;5074749;28;20059;-78
2022/06/08 09:19:32;;;;;;;4.38;1.27;;;24.20;48.70;;;;;;5081667;28;20520;-77
2022/06/08 09:22:22;;;;;;;7.85;1.73;;;24.00;48.60;;;;;;5064210;28;20044;-76
2022/06/08 09:24:53;;;;;;;5.47;1.30;;;23.80;48.90;;;;;;5082457;28;20060;-77
2022/06/08 09:27:23;;;;;;;5.43;1.27;;;23.70;48.70;;;;;;5079027;28;20044;-77
2022/06/08 09:29:56;;;;;;;11.35;5.47;;;23.60;49.50;;;;;;5086742;28;20412;-76
2022/06/08 09:32:28;;;;;;;4.80;2.03;;;23.60;49.30;;;;;;5069993;28;20048;-76
2022/06/08 09:34:58;;;;;;;5.65;1.40;;;23.50;49.20;;;;;;5084759;28;20097;-77
2022/06/08 09:37:28;;;;;;;4.72;2.17;;;23.40;49.20;;;;;;5084135;28;20483;-78
2022/06/08 09:39:58;;;;;;;2.75;1.35;;;23.30;49.50;;;;;;5084589;28;20052;-80
2022/06/08 09:42:44;;;;;;;3.65;0.90;;;23.30;49.80;;;;;;5076001;28;20134;-77
2022/06/08 09:45:28;;;;;;;3.53;1.10;;;23.30;49.70;;;;;;5073137;28;20036;-78
2022/06/08 09:53:58;;;;;;;7.40;1.40;;;23.20;50.30;;;;;;5064551;28;20057;-76
2022/06/08 09:56:30;;;;;;;6.03;1.42;;;23.20;50.50;;;;;;5073134;28;20059;-77
2022/06/08 09:59:11;;;;;;;1.88;1.33;;;23.20;50.60;;;;;;5064859;28;20402;-77
2022/06/08 10:01:45;;;;;;;2.85;1.30;;;23.30;50.50;;;;;;5075907;28;20058;-78
2022/06/08 10:04:37;;;;;;;7.78;5.05;;;23.30;51.00;;;;;;5084054;28;20047;-76
2022/06/08 10:07:15;;;;;;;3.92;1.42;;;23.30;51.20;;;;;;5064903;28;20098;-76
2022/06/08 10:09:56;;;;;;;3.05;1.40;;;23.20;51.20;;;;;;5068756;28;20036;-76
2022/06/08 10:12:31;;;;;;;5.90;1.83;;;23.10;51.80;;;;;;5067317;28;20189;-77
2022/06/08 10:15:02;;;;;;;3.78;1.52;;;23.00;51.90;;;;;;5084349;28;20068;-78
2022/06/08 10:17:40;;;;;;;4.65;1.38;;;23.10;52.10;;;;;;5070814;28;20080;-78
2022/06/08 10:20:13;;;;;;;15.35;1.60;;;23.10;52.10;;;;;;5084547;28;20124;-78
2022/06/08 10:22:43;;;;;;;10.13;2.28;;;23.10;52.40;;;;;;5077511;28;20052;-78
2022/06/08 10:25:18;;;;;;;7.57;3.75;;;23.10;53.00;;;;;;5089322;28;20048;-78
2022/06/08 10:27:52;;;;;;;9.65;1.35;;;23.00;52.80;;;;;;5067921;28;20044;-78
2022/06/08 10:30:25;;;;;;;7.03;2.00;;;23.10;52.70;;;;;;5076014;28;20044;-77
2022/06/08 10:33:02;;;;;;;3.10;1.20;;;23.00;52.80;;;;;;5061256;28;20055;-78
2022/06/08 10:35:38;;;;;;;4.40;1.17;;;23.00;53.00;;;;;;5060277;28;20081;-78
2022/06/08 10:38:08;;;;;;;5.05;1.30;;;22.90;52.90;;;;;;5073951;28;20044;-78
2022/06/08 10:40:50;;;;;;;4.78;1.50;;;22.90;53.30;;;;;;5077311;28;20054;-78
2022/06/08 10:43:28;;;;;;;5.65;1.75;;;22.90;53.30;;;;;;5058330;28;20475;-77
2022/06/08 10:46:00;;;;;;;2.17;1.13;;;22.90;53.20;;;;;;5084929;28;20229;-77
2022/06/08 10:48:42;;;;;;;4.60;1.55;;;22.80;52.90;;;;;;5059986;28;20386;-76
2022/06/08 10:51:31;;;;;;;4.68;1.90;;;22.80;53.20;;;;;;5054632;28;20052;-76
2022/06/08 10:56:55;;;;;;;9.55;2.10;;;22.90;54.10;;;;;;5072792;28;20394;-77
2022/06/08 10:59:26;;;;;;;3.92;1.40;;;22.90;53.90;;;;;;5075034;28;20059;-76
2022/06/08 11:02:17;;;;;;;4.25;1.70;;;23.00;53.60;;;;;;5072204;28;20057;-76
2022/06/08 11:05:01;;;;;;;4.20;1.20;;;23.00;54.30;;;;;;5082875;28;20198;-75
2022/06/08 11:08:07;;;;;;;2.75;1.50;;;23.00;54.50;;;;;;5074622;28;20125;-74
2022/06/08 11:11:01;;;;;;;3.35;1.20;;;23.30;55.00;;;;;;5074392;28;20044;-76
2022/06/08 11:13:35;;;;;;;6.35;1.75;;;23.60;54.10;;;;;;5075486;28;20413;-77
2022/06/08 11:16:14;;;;;;;4.88;1.90;;;23.80;54.10;;;;;;5065466;28;20043;-77
2022/06/08 11:18:47;;;;;;;9.68;2.00;;;23.90;53.60;;;;;;5073728;28;20048;-78
2022/06/08 11:21:38;;;;;;;10.05;2.28;;;24.00;53.80;;;;;;5067622;28;20139;-77
2022/06/08 11:24:17;;;;;;;10.75;2.15;;;24.00;54.10;;;;;;5069718;28;20500;-75
2022/06/08 11:26:53;;;;;;;6.03;1.73;;;23.90;54.10;;;;;;5066292;28;20075;-75
2022/06/08 11:29:42;;;;;;;5.10;1.65;;;23.80;53.60;;;;;;5082265;28;20056;-74
2022/06/08 11:32:36;;;;;;;6.32;1.60;;;23.80;53.90;;;;;;5080463;28;20113;-76
2022/06/08 11:35:37;;;;;;;8.93;1.55;;;23.80;53.50;;;;;;5075028;28;20488;-77
2022/06/08 11:38:18;;;;;;;3.70;1.45;;;23.70;53.70;;;;;;5021879;28;20466;-78
2022/06/08 11:40:49;;;;;;;5.63;2.65;;;23.60;53.90;;;;;;5053836;28;20143;-78
2022/06/08 11:43:37;;;;;;;3.28;1.48;;;23.60;54.20;;;;;;5058168;28;20044;-78
2022/06/08 11:46:06;;;;;;;3.40;1.70;;;23.50;54.20;;;;;;5071932;28;20060;-78
2022/06/08 11:48:47;;;;;;;4.35;2.72;;;23.50;54.20;;;;;;5070994;28;20184;-77
2022/06/08 11:51:30;;;;;;;7.50;1.40;;;23.60;54.40;;;;;;5077523;28;20540;-79
2022/06/08 11:54:15;;;;;;;5.78;1.63;;;23.60;53.90;;;;;;5076418;28;20297;-77
2022/06/08 11:56:54;;;;;;;3.95;2.15;;;23.60;54.20;;;;;;5073631;28;20052;-77
2022/06/08 11:59:22;;;;;;;5.65;1.85;;;23.60;54.70;;;;;;5076359;28;20114;-76
2022/06/08 12:01:54;;;;;;;5.57;1.60;;;23.60;54.90;;;;;;5076283;28;20116;-77
2022/06/08 12:04:30;;;;;;;5.78;2.13;;;23.70;54.40;;;;;;5073465;28;20616;-77
2022/06/08 12:06:58;;;;;;;6.80;1.65;;;23.70;53.90;;;;;;5071983;28;20056;-76
2022/06/08 12:09:31;;;;;;;10.55;1.88;;;23.70;54.00;;;;;;5079571;28;20412;-75
2022/06/08 12:12:03;;;;;;;6.53;1.70;;;23.60;54.20;;;;;;5074144;28;20351;-76
2022/06/08 12:14:33;;;;;;;3.17;1.70;;;23.60;54.60;;;;;;5055561;28;20143;-76
2022/06/08 12:17:04;;;;;;;9.25;2.10;;;23.60;54.80;;;;;;5077125;28;20407;-76
2022/06/08 12:19:40;;;;;;;12.63;2.30;;;23.60;55.20;;;;;;5086958;28;20066;-76
2022/06/08 12:22:18;;;;;;;8.00;1.90;;;23.70;55.70;;;;;;5073588;28;20056;-76
2022/06/08 12:25:05;;;;;;;6.15;1.75;;;23.70;54.80;;;;;;5057700;28;20055;-75
2022/06/08 12:27:42;;;;;;;7.47;1.58;;;23.80;54.20;;;;;;5065916;28;20084;-75
2022/06/08 12:30:20;;;;;;;8.95;2.03;;;23.80;54.20;;;;;;5074352;28;20043;-74
2022/06/08 12:32:53;;;;;;;6.72;1.95;;;23.80;54.30;;;;;;5084356;28;20135;-74
2022/06/08 12:35:31;;;;;;;3.72;1.83;;;23.80;54.50;;;;;;5081750;28;20059;-74
2022/06/08 12:38:22;;;;;;;4.65;1.67;;;23.90;54.90;;;;;;5056172;28;20052;-76
2022/06/08 12:41:14;;;;;;;5.10;1.95;;;23.90;54.50;;;;;;5068324;28;20086;-77
2022/06/08 12:43:47;;;;;;;5.45;1.80;;;24.20;54.10;;;;;;5071067;28;20051;-76
2022/06/08 12:46:23;;;;;;;6.68;1.50;;;24.70;53.60;;;;;;5073296;28;20045;-75
2022/06/08 12:48:59;;;;;;;3.10;1.85;;;25.80;52.00;;;;;;5074762;28;20052;-78
2022/06/08 12:51:40;;;;;;;9.27;1.98;;;27.20;49.90;;;;;;5080495;28;20068;-76
2022/06/08 12:54:15;;;;;;;7.70;1.48;;;28.00;48.50;;;;;;5079257;28;20051;-74
2022/06/08 12:56:46;;;;;;;8.52;2.15;;;28.40;48.00;;;;;;5080735;28;20048;-75
2022/06/08 12:59:13;;;;;;;5.03;1.45;;;28.50;47.50;;;;;;5071732;28;20131;-75
2022/06/08 13:01:44;;;;;;;6.93;1.85;;;28.70;47.20;;;;;;5072502;28;20134;-77
2022/06/08 13:04:17;;;;;;;5.18;1.60;;;28.60;47.50;;;;;;5083383;28;20399;-75
2022/06/08 13:06:45;;;;;;;6.28;1.38;;;28.20;48.30;;;;;;5062623;28;20091;-75
2022/06/08 13:09:18;;;;;;;2.10;1.88;;;27.70;48.10;;;;;;5084216;28;20059;-75
2022/06/08 13:11:53;;;;;;;7.80;1.80;;;27.20;48.70;;;;;;5080229;28;20400;-77
2022/06/08 13:14:22;;;;;;;5.47;1.88;;;26.80;49.60;;;;;;5085607;28;20443;-75
2022/06/08 13:16:50;;;;;;;4.18;1.73;;;26.60;50.00;;;;;;5072799;28;20522;-77
2022/06/08 13:19:18;;;;;;;8.30;2.33;;;26.40;50.20;;;;;;5068871;28;20052;-77
2022/06/08 13:21:48;;;;;;;6.70;1.98;;;26.20;50.80;;;;;;5075231;28;20045;-75
2022/06/08 13:24:16;;;;;;;6.10;1.70;;;26.10;51.30;;;;;;5067744;28;20075;-77
2022/06/08 13:26:44;;;;;;;7.15;2.13;;;26.30;51.00;;;;;;5076189;28;20512;-77
2022/06/08 13:29:13;;;;;;;9.70;2.33;;;26.60;50.90;;;;;;5075905;28;20440;-77
2022/06/08 13:31:41;;;;;;;3.42;1.70;;;26.40;50.50;;;;;;5069096;28;20398;-77
2022/06/08 13:34:10;;;;;;;5.95;1.98;;;26.20;50.70;;;;;;5075049;28;20479;-79
2022/06/08 13:36:42;;;;;;;7.03;2.05;;;26.00;51.80;;;;;;5073381;28;20040;-77